Pagrindinis puslapis
METAR-TAF:

METAR-TAF

Oro uostai :

Ilas, Peru

platuma: 17-41-45S, ilguma: 071-20-35W, Aukštis: 22 m

METAR: trūkstamas

Laikas: 23:59 (04:59 UTC)

Prognozė

Ataskaita buvo paskelbta 11 valandos ir 59 minutes, ne 17:00 UTC
Prognozė galioja nuo 15 metu 18 UTC su 16 metu 18 UTC
Vėjas 10 kt iš Pietų/Pietryčių
Matomumas 10 km arba daugiau
nėra debesų žemiau 1500 m ir nėra kamuolinių lietaus debesų

TAF: SPLO 151700Z 1518/1618 15010KT CAVOK TX27/1519Z TN18/1611Z

Orai ataskaitas ir orų prognozės (METAR, TAF).

turimą stotys yra geltonos ir raudonos taškus žemėlapyje.

Perkelti pele per norėdami pamatyti stoties vardą.

Tada spustelėkite, norėdami matyti oro stebėjimo ir prognozės.

Norėdami pakeisti žemėlapį: spustelėkite ant žalios mygtukų su juodo kryžiaus žemyn,; žalią mygtuką su brūkšneliu, jei norite nutolinti; arba žalių rodyklių gretimoms žemėlapius.


METAR-TAF: